sensor_id;sensor_type;location;lat;lon;timestamp;P1;durP1;ratioP1;P2;durP2;ratioP2
59336;SDS011;45115;52.002;4.686;2022-12-29T00:01:30;4.15;;;2.58;;
59336;SDS011;45115;52.002;4.686;2022-12-29T00:03:58;4.28;;;2.58;;
59336;SDS011;45115;52.002;4.686;2022-12-29T00:06:26;3.83;;;2.25;;
59336;SDS011;45115;52.002;4.686;2022-12-29T00:08:53;3.72;;;2.60;;
59336;SDS011;45115;52.002;4.686;2022-12-29T00:11:21;4.07;;;2.17;;
59336;SDS011;45115;52.002;4.686;2022-12-29T00:13:49;3.58;;;2.58;;
59336;SDS011;45115;52.002;4.686;2022-12-29T00:16:34;3.65;;;2.25;;
59336;SDS011;45115;52.002;4.686;2022-12-29T00:19:02;3.08;;;2.10;;
59336;SDS011;45115;52.002;4.686;2022-12-29T00:21:30;3.42;;;2.20;;
59336;SDS011;45115;52.002;4.686;2022-12-29T00:24:16;2.95;;;2.40;;
59336;SDS011;45115;52.002;4.686;2022-12-29T00:27:09;4.22;;;2.40;;
59336;SDS011;45115;52.002;4.686;2022-12-29T00:29:56;2.75;;;2.40;;
59336;SDS011;45115;52.002;4.686;2022-12-29T00:32:40;3.83;;;2.50;;
59336;SDS011;45115;52.002;4.686;2022-12-29T00:35:27;3.53;;;2.60;;
59336;SDS011;45115;52.002;4.686;2022-12-29T00:37:57;5.00;;;2.90;;
59336;SDS011;45115;52.002;4.686;2022-12-29T00:40:45;3.25;;;2.58;;
59336;SDS011;45115;52.002;4.686;2022-12-29T00:43:31;5.82;;;3.15;;
59336;SDS011;45115;52.002;4.686;2022-12-29T00:46:15;4.07;;;2.88;;
59336;SDS011;45115;52.002;4.686;2022-12-29T00:48:42;3.10;;;2.40;;
59336;SDS011;45115;52.002;4.686;2022-12-29T00:51:23;5.38;;;2.55;;
59336;SDS011;45115;52.002;4.686;2022-12-29T00:53:51;4.63;;;2.53;;
59336;SDS011;45115;52.002;4.686;2022-12-29T00:56:17;3.22;;;2.83;;
59336;SDS011;45115;52.002;4.686;2022-12-29T00:58:44;6.45;;;2.78;;
59336;SDS011;45115;52.002;4.686;2022-12-29T01:01:11;4.65;;;2.67;;
59336;SDS011;45115;52.002;4.686;2022-12-29T01:03:38;3.00;;;2.38;;
59336;SDS011;45115;52.002;4.686;2022-12-29T01:06:05;3.33;;;2.20;;
59336;SDS011;45115;52.002;4.686;2022-12-29T01:08:34;3.28;;;2.40;;
59336;SDS011;45115;52.002;4.686;2022-12-29T01:11:03;3.88;;;2.30;;
59336;SDS011;45115;52.002;4.686;2022-12-29T01:13:30;4.47;;;2.67;;
59336;SDS011;45115;52.002;4.686;2022-12-29T01:15:57;3.15;;;2.50;;
59336;SDS011;45115;52.002;4.686;2022-12-29T01:18:24;3.75;;;2.65;;
59336;SDS011;45115;52.002;4.686;2022-12-29T01:20:57;6.45;;;2.70;;
59336;SDS011;45115;52.002;4.686;2022-12-29T01:23:25;3.55;;;2.30;;
59336;SDS011;45115;52.002;4.686;2022-12-29T01:25:51;3.00;;;2.40;;
59336;SDS011;45115;52.002;4.686;2022-12-29T01:28:20;4.82;;;2.72;;
59336;SDS011;45115;52.002;4.686;2022-12-29T01:30:47;3.80;;;2.80;;
59336;SDS011;45115;52.002;4.686;2022-12-29T01:33:14;4.10;;;2.47;;
59336;SDS011;45115;52.002;4.686;2022-12-29T01:35:41;3.67;;;2.47;;
59336;SDS011;45115;52.002;4.686;2022-12-29T01:38:07;3.45;;;2.70;;
59336;SDS011;45115;52.002;4.686;2022-12-29T01:40:42;3.72;;;2.70;;
59336;SDS011;45115;52.002;4.686;2022-12-29T01:43:10;3.67;;;2.67;;
59336;SDS011;45115;52.002;4.686;2022-12-29T01:45:41;2.63;;;2.40;;
59336;SDS011;45115;52.002;4.686;2022-12-29T01:48:10;3.72;;;2.78;;
59336;SDS011;45115;52.002;4.686;2022-12-29T01:50:40;5.50;;;2.70;;
59336;SDS011;45115;52.002;4.686;2022-12-29T01:53:10;4.87;;;2.50;;
59336;SDS011;45115;52.002;4.686;2022-12-29T01:55:42;3.05;;;2.50;;
59336;SDS011;45115;52.002;4.686;2022-12-29T01:58:11;2.40;;;2.03;;
59336;SDS011;45115;52.002;4.686;2022-12-29T02:00:42;3.45;;;2.38;;
59336;SDS011;45115;52.002;4.686;2022-12-29T02:03:10;4.35;;;1.95;;
59336;SDS011;45115;52.002;4.686;2022-12-29T02:05:38;4.70;;;2.22;;
59336;SDS011;45115;52.002;4.686;2022-12-29T02:08:12;2.85;;;1.80;;
59336;SDS011;45115;52.002;4.686;2022-12-29T02:10:39;4.35;;;2.00;;
59336;SDS011;45115;52.002;4.686;2022-12-29T02:13:08;6.63;;;1.98;;
59336;SDS011;45115;52.002;4.686;2022-12-29T02:15:35;5.22;;;1.90;;
59336;SDS011;45115;52.002;4.686;2022-12-29T02:18:20;4.93;;;1.65;;
59336;SDS011;45115;52.002;4.686;2022-12-29T02:30:30;3.53;;;1.60;;
59336;SDS011;45115;52.002;4.686;2022-12-29T02:33:19;4.75;;;1.42;;
59336;SDS011;45115;52.002;4.686;2022-12-29T02:35:56;5.45;;;1.58;;
59336;SDS011;45115;52.002;4.686;2022-12-29T02:38:38;4.63;;;1.58;;
59336;SDS011;45115;52.002;4.686;2022-12-29T02:41:16;4.55;;;1.50;;
59336;SDS011;45115;52.002;4.686;2022-12-29T02:43:49;2.25;;;1.38;;
59336;SDS011;45115;52.002;4.686;2022-12-29T02:46:21;2.00;;;1.30;;
59336;SDS011;45115;52.002;4.686;2022-12-29T02:48:57;2.10;;;1.17;;
59336;SDS011;45115;52.002;4.686;2022-12-29T02:51:33;14.40;;;2.85;;
59336;SDS011;45115;52.002;4.686;2022-12-29T02:54:05;11.52;;;1.98;;
59336;SDS011;45115;52.002;4.686;2022-12-29T02:56:50;2.78;;;1.55;;
59336;SDS011;45115;52.002;4.686;2022-12-29T02:59:18;8.15;;;2.13;;
59336;SDS011;45115;52.002;4.686;2022-12-29T03:01:53;7.60;;;1.88;;
59336;SDS011;45115;52.002;4.686;2022-12-29T03:04:46;6.20;;;2.33;;
59336;SDS011;45115;52.002;4.686;2022-12-29T03:07:23;9.00;;;2.08;;
59336;SDS011;45115;52.002;4.686;2022-12-29T03:09:57;4.80;;;1.70;;
59336;SDS011;45115;52.002;4.686;2022-12-29T03:12:29;6.15;;;1.85;;
59336;SDS011;45115;52.002;4.686;2022-12-29T03:15:19;3.70;;;1.60;;
59336;SDS011;45115;52.002;4.686;2022-12-29T03:18:10;3.53;;;1.65;;
59336;SDS011;45115;52.002;4.686;2022-12-29T03:20:43;7.55;;;2.03;;
59336;SDS011;45115;52.002;4.686;2022-12-29T03:23:18;2.50;;;1.58;;
59336;SDS011;45115;52.002;4.686;2022-12-29T03:25:48;8.27;;;1.77;;
59336;SDS011;45115;52.002;4.686;2022-12-29T03:28:21;4.95;;;1.73;;
59336;SDS011;45115;52.002;4.686;2022-12-29T03:30:50;6.72;;;2.03;;
59336;SDS011;45115;52.002;4.686;2022-12-29T03:33:20;5.15;;;1.63;;
59336;SDS011;45115;52.002;4.686;2022-12-29T03:35:51;6.18;;;1.70;;
59336;SDS011;45115;52.002;4.686;2022-12-29T03:38:24;2.08;;;1.60;;
59336;SDS011;45115;52.002;4.686;2022-12-29T03:40:56;3.60;;;1.27;;
59336;SDS011;45115;52.002;4.686;2022-12-29T03:43:28;4.35;;;1.30;;
59336;SDS011;45115;52.002;4.686;2022-12-29T03:45:55;4.75;;;1.48;;
59336;SDS011;45115;52.002;4.686;2022-12-29T03:48:24;4.22;;;1.70;;
59336;SDS011;45115;52.002;4.686;2022-12-29T03:50:53;6.30;;;1.65;;
59336;SDS011;45115;52.002;4.686;2022-12-29T03:53:21;6.30;;;1.70;;
59336;SDS011;45115;52.002;4.686;2022-12-29T03:55:48;4.60;;;1.70;;
59336;SDS011;45115;52.002;4.686;2022-12-29T03:58:15;5.30;;;1.80;;
59336;SDS011;45115;52.002;4.686;2022-12-29T04:00:55;5.32;;;2.47;;
59336;SDS011;45115;52.002;4.686;2022-12-29T04:03:22;8.00;;;2.35;;
59336;SDS011;45115;52.002;4.686;2022-12-29T04:05:51;5.32;;;2.40;;
59336;SDS011;45115;52.002;4.686;2022-12-29T04:08:18;7.13;;;2.92;;
59336;SDS011;45115;52.002;4.686;2022-12-29T04:10:44;4.53;;;1.58;;
59336;SDS011;45115;52.002;4.686;2022-12-29T04:13:14;3.97;;;1.77;;
59336;SDS011;45115;52.002;4.686;2022-12-29T04:15:42;9.68;;;2.10;;
59336;SDS011;45115;52.002;4.686;2022-12-29T04:18:09;8.68;;;2.30;;
59336;SDS011;45115;52.002;4.686;2022-12-29T04:20:37;6.85;;;1.70;;
59336;SDS011;45115;52.002;4.686;2022-12-29T04:23:23;6.57;;;2.17;;
59336;SDS011;45115;52.002;4.686;2022-12-29T04:25:50;7.43;;;1.95;;
59336;SDS011;45115;52.002;4.686;2022-12-29T04:28:16;11.63;;;2.83;;
59336;SDS011;45115;52.002;4.686;2022-12-29T04:31:02;8.40;;;1.83;;
59336;SDS011;45115;52.002;4.686;2022-12-29T04:33:36;11.05;;;2.22;;
59336;SDS011;45115;52.002;4.686;2022-12-29T04:36:03;7.85;;;1.80;;
59336;SDS011;45115;52.002;4.686;2022-12-29T04:38:32;9.75;;;2.55;;
59336;SDS011;45115;52.002;4.686;2022-12-29T04:41:02;7.50;;;1.90;;
59336;SDS011;45115;52.002;4.686;2022-12-29T04:43:29;10.43;;;2.65;;
59336;SDS011;45115;52.002;4.686;2022-12-29T04:46:16;7.50;;;2.35;;
59336;SDS011;45115;52.002;4.686;2022-12-29T04:48:51;7.15;;;2.40;;
59336;SDS011;45115;52.002;4.686;2022-12-29T04:51:44;8.63;;;2.33;;
59336;SDS011;45115;52.002;4.686;2022-12-29T04:54:14;9.27;;;2.65;;
59336;SDS011;45115;52.002;4.686;2022-12-29T04:56:43;8.63;;;3.63;;
59336;SDS011;45115;52.002;4.686;2022-12-29T04:59:12;8.90;;;2.50;;
59336;SDS011;45115;52.002;4.686;2022-12-29T05:01:40;9.27;;;2.58;;
59336;SDS011;45115;52.002;4.686;2022-12-29T05:04:08;8.63;;;2.53;;
59336;SDS011;45115;52.002;4.686;2022-12-29T05:06:36;8.43;;;2.13;;
59336;SDS011;45115;52.002;4.686;2022-12-29T05:09:03;6.90;;;2.10;;
59336;SDS011;45115;52.002;4.686;2022-12-29T05:11:32;7.90;;;2.63;;
59336;SDS011;45115;52.002;4.686;2022-12-29T05:14:00;9.63;;;2.60;;
59336;SDS011;45115;52.002;4.686;2022-12-29T05:16:26;10.75;;;2.63;;
59336;SDS011;45115;52.002;4.686;2022-12-29T05:18:53;8.05;;;2.10;;
59336;SDS011;45115;52.002;4.686;2022-12-29T05:21:20;10.23;;;2.85;;
59336;SDS011;45115;52.002;4.686;2022-12-29T05:23:47;10.88;;;2.65;;
59336;SDS011;45115;52.002;4.686;2022-12-29T05:26:14;9.70;;;2.35;;
59336;SDS011;45115;52.002;4.686;2022-12-29T05:29:08;7.20;;;2.00;;
59336;SDS011;45115;52.002;4.686;2022-12-29T05:31:35;6.63;;;1.77;;
59336;SDS011;45115;52.002;4.686;2022-12-29T05:34:04;12.68;;;2.83;;
59336;SDS011;45115;52.002;4.686;2022-12-29T05:36:30;6.93;;;1.85;;
59336;SDS011;45115;52.002;4.686;2022-12-29T05:38:59;13.23;;;3.05;;
59336;SDS011;45115;52.002;4.686;2022-12-29T05:41:26;10.32;;;2.83;;
59336;SDS011;45115;52.002;4.686;2022-12-29T05:44:14;8.43;;;2.28;;
59336;SDS011;45115;52.002;4.686;2022-12-29T05:47:03;15.35;;;3.17;;
59336;SDS011;45115;52.002;4.686;2022-12-29T05:49:45;10.05;;;2.13;;
59336;SDS011;45115;52.002;4.686;2022-12-29T05:52:32;13.20;;;2.97;;
59336;SDS011;45115;52.002;4.686;2022-12-29T05:54:59;9.93;;;2.83;;
59336;SDS011;45115;52.002;4.686;2022-12-29T05:57:28;11.48;;;2.47;;
59336;SDS011;45115;52.002;4.686;2022-12-29T06:00:08;13.07;;;3.38;;
59336;SDS011;45115;52.002;4.686;2022-12-29T06:02:42;13.38;;;3.55;;
59336;SDS011;45115;52.002;4.686;2022-12-29T06:05:09;12.48;;;2.25;;
59336;SDS011;45115;52.002;4.686;2022-12-29T06:07:37;10.68;;;2.55;;
59336;SDS011;45115;52.002;4.686;2022-12-29T06:10:05;7.65;;;1.92;;
59336;SDS011;45115;52.002;4.686;2022-12-29T06:12:40;10.00;;;2.47;;
59336;SDS011;45115;52.002;4.686;2022-12-29T06:15:09;10.02;;;2.45;;
59336;SDS011;45115;52.002;4.686;2022-12-29T06:17:40;7.53;;;2.20;;
59336;SDS011;45115;52.002;4.686;2022-12-29T06:20:08;11.55;;;3.08;;
59336;SDS011;45115;52.002;4.686;2022-12-29T06:22:36;10.77;;;3.42;;
59336;SDS011;45115;52.002;4.686;2022-12-29T06:25:03;13.10;;;2.78;;
59336;SDS011;45115;52.002;4.686;2022-12-29T06:27:32;13.50;;;2.55;;
59336;SDS011;45115;52.002;4.686;2022-12-29T06:29:59;11.07;;;2.58;;
59336;SDS011;45115;52.002;4.686;2022-12-29T06:32:28;10.82;;;2.42;;
59336;SDS011;45115;52.002;4.686;2022-12-29T06:34:59;14.05;;;3.08;;
59336;SDS011;45115;52.002;4.686;2022-12-29T06:37:26;12.13;;;2.80;;
59336;SDS011;45115;52.002;4.686;2022-12-29T06:39:53;10.57;;;2.60;;
59336;SDS011;45115;52.002;4.686;2022-12-29T06:42:20;12.80;;;3.13;;
59336;SDS011;45115;52.002;4.686;2022-12-29T06:45:10;8.35;;;3.08;;
59336;SDS011;45115;52.002;4.686;2022-12-29T06:47:38;10.55;;;3.05;;
59336;SDS011;45115;52.002;4.686;2022-12-29T06:50:05;9.35;;;2.30;;
59336;SDS011;45115;52.002;4.686;2022-12-29T06:52:32;8.82;;;2.15;;
59336;SDS011;45115;52.002;4.686;2022-12-29T06:54:59;10.60;;;2.15;;
59336;SDS011;45115;52.002;4.686;2022-12-29T06:57:25;10.20;;;2.08;;
59336;SDS011;45115;52.002;4.686;2022-12-29T06:59:52;5.05;;;2.13;;
59336;SDS011;45115;52.002;4.686;2022-12-29T07:02:20;9.05;;;1.77;;
59336;SDS011;45115;52.002;4.686;2022-12-29T07:04:48;6.97;;;2.20;;
59336;SDS011;45115;52.002;4.686;2022-12-29T07:07:15;4.53;;;1.90;;
59336;SDS011;45115;52.002;4.686;2022-12-29T07:09:42;8.20;;;2.42;;
59336;SDS011;45115;52.002;4.686;2022-12-29T07:12:09;8.80;;;2.50;;
59336;SDS011;45115;52.002;4.686;2022-12-29T07:14:36;5.60;;;2.10;;
59336;SDS011;45115;52.002;4.686;2022-12-29T07:17:03;6.90;;;2.33;;
59336;SDS011;45115;52.002;4.686;2022-12-29T07:19:30;10.18;;;2.40;;
59336;SDS011;45115;52.002;4.686;2022-12-29T07:21:59;7.35;;;2.17;;
59336;SDS011;45115;52.002;4.686;2022-12-29T07:24:26;11.23;;;2.67;;
59336;SDS011;45115;52.002;4.686;2022-12-29T07:26:53;9.90;;;2.83;;
59336;SDS011;45115;52.002;4.686;2022-12-29T07:29:19;7.60;;;2.72;;
59336;SDS011;45115;52.002;4.686;2022-12-29T07:31:46;14.70;;;2.92;;
59336;SDS011;45115;52.002;4.686;2022-12-29T07:34:13;11.00;;;2.25;;
59336;SDS011;45115;52.002;4.686;2022-12-29T07:36:40;10.50;;;2.50;;
59336;SDS011;45115;52.002;4.686;2022-12-29T07:39:08;10.20;;;2.70;;
59336;SDS011;45115;52.002;4.686;2022-12-29T07:41:35;13.70;;;2.97;;
59336;SDS011;45115;52.002;4.686;2022-12-29T07:44:01;13.15;;;3.30;;
59336;SDS011;45115;52.002;4.686;2022-12-29T07:46:48;7.93;;;2.03;;
59336;SDS011;45115;52.002;4.686;2022-12-29T07:49:15;16.30;;;2.97;;
59336;SDS011;45115;52.002;4.686;2022-12-29T07:51:42;8.25;;;2.30;;
59336;SDS011;45115;52.002;4.686;2022-12-29T07:54:10;10.38;;;2.38;;
59336;SDS011;45115;52.002;4.686;2022-12-29T07:56:37;9.43;;;2.60;;
59336;SDS011;45115;52.002;4.686;2022-12-29T07:59:05;16.85;;;3.03;;
59336;SDS011;45115;52.002;4.686;2022-12-29T08:01:32;11.18;;;2.78;;
59336;SDS011;45115;52.002;4.686;2022-12-29T08:03:59;9.50;;;2.67;;
59336;SDS011;45115;52.002;4.686;2022-12-29T08:06:25;13.63;;;2.65;;
59336;SDS011;45115;52.002;4.686;2022-12-29T08:08:53;9.55;;;2.67;;
59336;SDS011;45115;52.002;4.686;2022-12-29T08:11:22;8.00;;;2.47;;
59336;SDS011;45115;52.002;4.686;2022-12-29T08:13:49;9.55;;;2.55;;
59336;SDS011;45115;52.002;4.686;2022-12-29T08:16:16;10.80;;;2.50;;
59336;SDS011;45115;52.002;4.686;2022-12-29T08:18:43;15.00;;;2.95;;
59336;SDS011;45115;52.002;4.686;2022-12-29T08:21:10;10.77;;;2.42;;
59336;SDS011;45115;52.002;4.686;2022-12-29T08:23:37;11.93;;;3.00;;
59336;SDS011;45115;52.002;4.686;2022-12-29T08:26:04;10.98;;;2.22;;
59336;SDS011;45115;52.002;4.686;2022-12-29T08:28:33;13.73;;;2.97;;
59336;SDS011;45115;52.002;4.686;2022-12-29T08:31:00;10.13;;;2.40;;
59336;SDS011;45115;52.002;4.686;2022-12-29T08:33:28;12.15;;;2.90;;
59336;SDS011;45115;52.002;4.686;2022-12-29T08:35:58;11.40;;;2.70;;
59336;SDS011;45115;52.002;4.686;2022-12-29T08:40:53;9.77;;;2.60;;
59336;SDS011;45115;52.002;4.686;2022-12-29T08:43:20;6.68;;;2.10;;
59336;SDS011;45115;52.002;4.686;2022-12-29T08:45:48;11.05;;;2.13;;
59336;SDS011;45115;52.002;4.686;2022-12-29T08:48:15;10.00;;;2.50;;
59336;SDS011;45115;52.002;4.686;2022-12-29T08:50:44;12.50;;;3.33;;
59336;SDS011;45115;52.002;4.686;2022-12-29T08:53:11;10.65;;;2.70;;
59336;SDS011;45115;52.002;4.686;2022-12-29T08:55:38;13.13;;;2.63;;
59336;SDS011;45115;52.002;4.686;2022-12-29T08:58:05;10.27;;;2.53;;
59336;SDS011;45115;52.002;4.686;2022-12-29T09:00:34;14.93;;;3.13;;
59336;SDS011;45115;52.002;4.686;2022-12-29T09:03:02;8.80;;;2.55;;
59336;SDS011;45115;52.002;4.686;2022-12-29T09:05:29;15.35;;;3.03;;
59336;SDS011;45115;52.002;4.686;2022-12-29T09:07:56;13.25;;;3.13;;
59336;SDS011;45115;52.002;4.686;2022-12-29T09:10:23;8.57;;;2.58;;
59336;SDS011;45115;52.002;4.686;2022-12-29T09:12:50;10.48;;;2.72;;
59336;SDS011;45115;52.002;4.686;2022-12-29T09:15:16;13.15;;;3.08;;
59336;SDS011;45115;52.002;4.686;2022-12-29T09:17:43;8.43;;;2.80;;
59336;SDS011;45115;52.002;4.686;2022-12-29T09:20:12;10.15;;;2.78;;
59336;SDS011;45115;52.002;4.686;2022-12-29T09:22:41;8.80;;;2.63;;
59336;SDS011;45115;52.002;4.686;2022-12-29T09:25:08;11.43;;;2.42;;
59336;SDS011;45115;52.002;4.686;2022-12-29T09:27:36;8.80;;;3.10;;
59336;SDS011;45115;52.002;4.686;2022-12-29T09:30:03;12.05;;;2.53;;
59336;SDS011;45115;52.002;4.686;2022-12-29T09:32:32;13.82;;;3.25;;
59336;SDS011;45115;52.002;4.686;2022-12-29T09:34:58;15.40;;;3.40;;
59336;SDS011;45115;52.002;4.686;2022-12-29T09:37:27;13.65;;;3.50;;
59336;SDS011;45115;52.002;4.686;2022-12-29T09:39:54;19.38;;;3.72;;
59336;SDS011;45115;52.002;4.686;2022-12-29T09:42:22;11.70;;;2.90;;
59336;SDS011;45115;52.002;4.686;2022-12-29T09:44:55;9.80;;;2.63;;
59336;SDS011;45115;52.002;4.686;2022-12-29T09:47:31;7.47;;;2.58;;
59336;SDS011;45115;52.002;4.686;2022-12-29T09:49:59;6.65;;;2.50;;
59336;SDS011;45115;52.002;4.686;2022-12-29T09:52:31;11.10;;;2.70;;
59336;SDS011;45115;52.002;4.686;2022-12-29T09:55:03;9.25;;;2.80;;
59336;SDS011;45115;52.002;4.686;2022-12-29T09:57:36;9.45;;;2.80;;
59336;SDS011;45115;52.002;4.686;2022-12-29T10:00:11;13.40;;;3.50;;
59336;SDS011;45115;52.002;4.686;2022-12-29T10:02:41;11.02;;;3.08;;
59336;SDS011;45115;52.002;4.686;2022-12-29T10:05:15;15.25;;;3.38;;
59336;SDS011;45115;52.002;4.686;2022-12-29T10:07:52;11.48;;;2.88;;
59336;SDS011;45115;52.002;4.686;2022-12-29T10:10:31;10.30;;;3.03;;
59336;SDS011;45115;52.002;4.686;2022-12-29T10:13:10;10.65;;;3.60;;
59336;SDS011;45115;52.002;4.686;2022-12-29T10:15:47;12.73;;;3.30;;
59336;SDS011;45115;52.002;4.686;2022-12-29T10:18:27;9.05;;;3.30;;
59336;SDS011;45115;52.002;4.686;2022-12-29T10:21:07;12.35;;;4.10;;
59336;SDS011;45115;52.002;4.686;2022-12-29T10:23:42;20.75;;;4.68;;
59336;SDS011;45115;52.002;4.686;2022-12-29T10:26:12;11.38;;;3.63;;
59336;SDS011;45115;52.002;4.686;2022-12-29T10:28:43;22.45;;;4.47;;
59336;SDS011;45115;52.002;4.686;2022-12-29T10:31:16;15.55;;;4.50;;
59336;SDS011;45115;52.002;4.686;2022-12-29T10:33:49;17.15;;;4.40;;
59336;SDS011;45115;52.002;4.686;2022-12-29T10:36:23;18.85;;;6.03;;
59336;SDS011;45115;52.002;4.686;2022-12-29T10:39:02;17.88;;;3.67;;
59336;SDS011;45115;52.002;4.686;2022-12-29T10:41:37;13.05;;;3.60;;
59336;SDS011;45115;52.002;4.686;2022-12-29T10:44:08;22.38;;;4.43;;
59336;SDS011;45115;52.002;4.686;2022-12-29T10:46:38;21.90;;;4.47;;
59336;SDS011;45115;52.002;4.686;2022-12-29T10:49:05;17.75;;;3.90;;
59336;SDS011;45115;52.002;4.686;2022-12-29T10:51:33;22.17;;;5.20;;
59336;SDS011;45115;52.002;4.686;2022-12-29T10:54:06;21.65;;;4.68;;
59336;SDS011;45115;52.002;4.686;2022-12-29T10:56:40;17.80;;;4.03;;
59336;SDS011;45115;52.002;4.686;2022-12-29T10:59:10;20.17;;;5.00;;
59336;SDS011;45115;52.002;4.686;2022-12-29T11:01:46;19.40;;;4.40;;
59336;SDS011;45115;52.002;4.686;2022-12-29T11:04:26;16.52;;;3.92;;
59336;SDS011;45115;52.002;4.686;2022-12-29T11:07:01;14.77;;;4.05;;
59336;SDS011;45115;52.002;4.686;2022-12-29T11:09:33;9.30;;;3.15;;
59336;SDS011;45115;52.002;4.686;2022-12-29T11:12:15;23.58;;;4.68;;
59336;SDS011;45115;52.002;4.686;2022-12-29T11:14:45;21.95;;;4.68;;
59336;SDS011;45115;52.002;4.686;2022-12-29T11:17:14;16.67;;;4.65;;
59336;SDS011;45115;52.002;4.686;2022-12-29T11:19:46;23.70;;;5.10;;
59336;SDS011;45115;52.002;4.686;2022-12-29T11:22:14;18.13;;;4.05;;
59336;SDS011;45115;52.002;4.686;2022-12-29T11:24:52;17.38;;;4.78;;
59336;SDS011;45115;52.002;4.686;2022-12-29T11:27:21;19.85;;;4.60;;
59336;SDS011;45115;52.002;4.686;2022-12-29T11:29:50;17.95;;;4.13;;
59336;SDS011;45115;52.002;4.686;2022-12-29T11:32:18;19.73;;;4.85;;
59336;SDS011;45115;52.002;4.686;2022-12-29T11:34:46;17.45;;;4.15;;
59336;SDS011;45115;52.002;4.686;2022-12-29T11:37:14;19.15;;;6.13;;
59336;SDS011;45115;52.002;4.686;2022-12-29T11:39:45;21.27;;;4.40;;
59336;SDS011;45115;52.002;4.686;2022-12-29T11:42:22;14.85;;;4.18;;
59336;SDS011;45115;52.002;4.686;2022-12-29T11:44:55;17.67;;;4.80;;
59336;SDS011;45115;52.002;4.686;2022-12-29T11:47:26;21.10;;;3.90;;
59336;SDS011;45115;52.002;4.686;2022-12-29T11:49:56;12.65;;;3.03;;
59336;SDS011;45115;52.002;4.686;2022-12-29T11:52:25;17.08;;;3.72;;
59336;SDS011;45115;52.002;4.686;2022-12-29T11:54:57;15.32;;;3.63;;
59336;SDS011;45115;52.002;4.686;2022-12-29T11:57:26;14.63;;;3.30;;
59336;SDS011;45115;52.002;4.686;2022-12-29T11:59:54;12.77;;;3.30;;
59336;SDS011;45115;52.002;4.686;2022-12-29T12:02:25;17.65;;;3.85;;
59336;SDS011;45115;52.002;4.686;2022-12-29T12:04:59;18.92;;;4.82;;
59336;SDS011;45115;52.002;4.686;2022-12-29T12:07:34;14.45;;;3.45;;
59336;SDS011;45115;52.002;4.686;2022-12-29T12:10:08;16.50;;;4.13;;
59336;SDS011;45115;52.002;4.686;2022-12-29T12:12:44;21.23;;;3.45;;
59336;SDS011;45115;52.002;4.686;2022-12-29T12:15:18;14.27;;;3.45;;
59336;SDS011;45115;52.002;4.686;2022-12-29T12:17:54;17.40;;;3.88;;
59336;SDS011;45115;52.002;4.686;2022-12-29T12:20:32;10.43;;;3.20;;
59336;SDS011;45115;52.002;4.686;2022-12-29T12:23:07;12.77;;;3.33;;
59336;SDS011;45115;52.002;4.686;2022-12-29T12:25:47;12.10;;;3.05;;
59336;SDS011;45115;52.002;4.686;2022-12-29T12:28:24;12.27;;;2.85;;
59336;SDS011;45115;52.002;4.686;2022-12-29T12:31:00;9.77;;;2.85;;
59336;SDS011;45115;52.002;4.686;2022-12-29T12:33:31;9.57;;;2.75;;
59336;SDS011;45115;52.002;4.686;2022-12-29T12:36:05;12.95;;;2.53;;
59336;SDS011;45115;52.002;4.686;2022-12-29T12:38:48;14.45;;;3.25;;
59336;SDS011;45115;52.002;4.686;2022-12-29T12:41:23;12.40;;;2.83;;
59336;SDS011;45115;52.002;4.686;2022-12-29T12:44:00;9.98;;;2.38;;
59336;SDS011;45115;52.002;4.686;2022-12-29T12:46:48;9.88;;;3.10;;
59336;SDS011;45115;52.002;4.686;2022-12-29T12:49:35;11.35;;;3.15;;
59336;SDS011;45115;52.002;4.686;2022-12-29T12:52:25;11.18;;;2.80;;
59336;SDS011;45115;52.002;4.686;2022-12-29T12:55:03;15.68;;;2.97;;
59336;SDS011;45115;52.002;4.686;2022-12-29T12:57:48;8.00;;;2.75;;
59336;SDS011;45115;52.002;4.686;2022-12-29T13:00:22;9.73;;;2.42;;
59336;SDS011;45115;52.002;4.686;2022-12-29T13:02:54;14.15;;;3.80;;
59336;SDS011;45115;52.002;4.686;2022-12-29T13:05:33;12.07;;;3.42;;
59336;SDS011;45115;52.002;4.686;2022-12-29T13:08:24;12.00;;;2.63;;
59336;SDS011;45115;52.002;4.686;2022-12-29T13:11:12;10.43;;;2.57;;
59336;SDS011;45115;52.002;4.686;2022-12-29T13:13:59;16.85;;;3.30;;
59336;SDS011;45115;52.002;4.686;2022-12-29T13:16:37;12.35;;;2.97;;
59336;SDS011;45115;52.002;4.686;2022-12-29T13:19:13;13.45;;;2.80;;
59336;SDS011;45115;52.002;4.686;2022-12-29T13:21:47;12.38;;;2.63;;
59336;SDS011;45115;52.002;4.686;2022-12-29T13:24:25;9.95;;;3.47;;
59336;SDS011;45115;52.002;4.686;2022-12-29T13:26:59;16.05;;;3.78;;
59336;SDS011;45115;52.002;4.686;2022-12-29T13:29:34;11.27;;;3.10;;
59336;SDS011;45115;52.002;4.686;2022-12-29T13:32:13;10.13;;;3.03;;
59336;SDS011;45115;52.002;4.686;2022-12-29T13:34:51;9.98;;;3.80;;
59336;SDS011;45115;52.002;4.686;2022-12-29T13:37:26;10.10;;;2.90;;
59336;SDS011;45115;52.002;4.686;2022-12-29T13:39:56;12.75;;;3.40;;
59336;SDS011;45115;52.002;4.686;2022-12-29T13:42:28;7.90;;;2.97;;
59336;SDS011;45115;52.002;4.686;2022-12-29T13:44:59;11.00;;;2.55;;
59336;SDS011;45115;52.002;4.686;2022-12-29T13:47:30;6.75;;;2.35;;
59336;SDS011;45115;52.002;4.686;2022-12-29T13:50:01;6.55;;;2.80;;
59336;SDS011;45115;52.002;4.686;2022-12-29T13:52:32;4.72;;;2.00;;
59336;SDS011;45115;52.002;4.686;2022-12-29T13:55:07;5.68;;;2.72;;
59336;SDS011;45115;52.002;4.686;2022-12-29T13:57:50;7.75;;;2.20;;
59336;SDS011;45115;52.002;4.686;2022-12-29T14:00:23;5.45;;;1.90;;
59336;SDS011;45115;52.002;4.686;2022-12-29T14:03:08;4.78;;;2.25;;
59336;SDS011;45115;52.002;4.686;2022-12-29T14:05:46;9.32;;;2.00;;
59336;SDS011;45115;52.002;4.686;2022-12-29T14:08:31;7.50;;;2.53;;
59336;SDS011;45115;52.002;4.686;2022-12-29T14:11:01;8.88;;;2.70;;
59336;SDS011;45115;52.002;4.686;2022-12-29T14:13:33;5.90;;;2.60;;
59336;SDS011;45115;52.002;4.686;2022-12-29T14:16:07;6.80;;;2.88;;
59336;SDS011;45115;52.002;4.686;2022-12-29T14:18:50;9.85;;;3.08;;
59336;SDS011;45115;52.002;4.686;2022-12-29T14:21:20;6.45;;;3.25;;
59336;SDS011;45115;52.002;4.686;2022-12-29T14:23:52;10.68;;;3.20;;
59336;SDS011;45115;52.002;4.686;2022-12-29T14:26:33;8.68;;;2.88;;
59336;SDS011;45115;52.002;4.686;2022-12-29T14:32:36;16.40;;;3.85;;
59336;SDS011;45115;52.002;4.686;2022-12-29T14:38:14;5.57;;;3.15;;
59336;SDS011;45115;52.002;4.686;2022-12-29T14:40:43;10.18;;;2.75;;
59336;SDS011;45115;52.002;4.686;2022-12-29T14:43:12;9.70;;;2.55;;
59336;SDS011;45115;52.002;4.686;2022-12-29T14:45:40;5.10;;;1.95;;
59336;SDS011;45115;52.002;4.686;2022-12-29T14:48:22;9.52;;;2.78;;
59336;SDS011;45115;52.002;4.686;2022-12-29T14:50:56;6.88;;;2.17;;
59336;SDS011;45115;52.002;4.686;2022-12-29T14:56:10;8.48;;;2.58;;
59336;SDS011;45115;52.002;4.686;2022-12-29T14:58:41;9.00;;;3.28;;
59336;SDS011;45115;52.002;4.686;2022-12-29T15:01:15;9.63;;;2.65;;
59336;SDS011;45115;52.002;4.686;2022-12-29T15:03:47;10.40;;;2.65;;
59336;SDS011;45115;52.002;4.686;2022-12-29T15:06:16;8.52;;;2.40;;
59336;SDS011;45115;52.002;4.686;2022-12-29T15:08:50;8.32;;;2.40;;
59336;SDS011;45115;52.002;4.686;2022-12-29T15:11:21;8.93;;;3.00;;
59336;SDS011;45115;52.002;4.686;2022-12-29T15:13:49;10.27;;;3.20;;
59336;SDS011;45115;52.002;4.686;2022-12-29T15:16:23;15.73;;;3.20;;
59336;SDS011;45115;52.002;4.686;2022-12-29T15:18:52;11.73;;;2.85;;
59336;SDS011;45115;52.002;4.686;2022-12-29T15:21:23;6.68;;;2.88;;
59336;SDS011;45115;52.002;4.686;2022-12-29T15:23:51;10.55;;;2.75;;
59336;SDS011;45115;52.002;4.686;2022-12-29T15:26:19;7.47;;;2.65;;
59336;SDS011;45115;52.002;4.686;2022-12-29T15:28:48;8.38;;;2.40;;
59336;SDS011;45115;52.002;4.686;2022-12-29T15:31:17;11.98;;;2.58;;